createdAt,value
2019-06-26T00:02:33.308Z,7.62
2019-06-26T00:05:08.620Z,6.45
2019-06-26T00:07:39.352Z,6.72
2019-06-26T00:10:09.983Z,6.60
2019-06-26T00:12:40.447Z,6.20
2019-06-26T00:15:11.256Z,6.58
2019-06-26T00:17:41.650Z,6.60
2019-06-26T00:20:14.461Z,7.72
2019-06-26T00:22:44.865Z,8.23
2019-06-26T00:25:15.383Z,8.35
2019-06-26T00:27:45.777Z,8.50
2019-06-26T00:30:16.304Z,7.80
2019-06-26T00:32:46.699Z,6.37
2019-06-26T00:35:17.314Z,8.00
2019-06-26T00:37:48.069Z,7.70
2019-06-26T00:40:18.799Z,7.75
2019-06-26T00:42:49.192Z,8.15
2019-06-26T00:45:20.006Z,6.58
2019-06-26T00:47:50.396Z,7.65
2019-06-26T00:50:20.941Z,7.55
2019-06-26T00:52:51.337Z,7.05
2019-06-26T00:55:21.728Z,7.85
2019-06-26T00:57:52.401Z,6.85
2019-06-26T01:00:30.174Z,6.50
2019-06-26T01:03:00.575Z,7.80
2019-06-26T01:05:32.129Z,7.30
2019-06-26T01:08:02.527Z,6.30
2019-06-26T01:10:32.981Z,6.67
2019-06-26T01:13:03.401Z,7.37
2019-06-26T01:15:33.847Z,6.50
2019-06-26T01:18:04.239Z,7.47
2019-06-26T01:20:34.638Z,6.92
2019-06-26T01:23:05.028Z,8.48
2019-06-26T01:25:35.432Z,8.08
2019-06-26T01:28:05.825Z,7.67
2019-06-26T01:30:36.570Z,8.70
2019-06-26T01:33:06.967Z,9.23
2019-06-26T01:35:38.276Z,8.53
2019-06-26T01:38:08.675Z,9.00
2019-06-26T01:40:39.077Z,9.08
2019-06-26T01:43:09.744Z,10.18
2019-06-26T01:45:40.129Z,8.18
2019-06-26T01:48:10.520Z,8.05
2019-06-26T01:50:40.916Z,7.78
2019-06-26T01:53:11.316Z,8.53
2019-06-26T01:55:41.748Z,8.78
2019-06-26T01:58:13.023Z,9.43
2019-06-26T02:00:43.431Z,7.10
2019-06-26T02:03:13.828Z,7.37
2019-06-26T02:05:44.494Z,8.18
2019-06-26T02:08:14.894Z,7.55
2019-06-26T02:10:45.606Z,7.65
2019-06-26T02:13:16.020Z,7.92
2019-06-26T02:15:46.401Z,7.55
2019-06-26T02:18:33.400Z,7.60
2019-06-26T02:21:03.921Z,7.15
2019-06-26T02:23:34.316Z,7.58
2019-06-26T02:26:04.779Z,7.65
2019-06-26T02:28:35.185Z,7.45
2019-06-26T02:31:05.649Z,8.40
2019-06-26T02:33:36.056Z,7.85
2019-06-26T02:36:07.292Z,9.15
2019-06-26T02:38:37.763Z,7.83
2019-06-26T02:41:08.293Z,9.23
2019-06-26T02:43:38.687Z,8.78
2019-06-26T02:46:09.111Z,9.78
2019-06-26T02:48:39.525Z,9.03
2019-06-26T02:51:09.889Z,10.40
2019-06-26T02:53:40.307Z,10.80
2019-06-26T02:56:10.692Z,9.60
2019-06-26T02:58:41.093Z,12.03
2019-06-26T03:01:11.802Z,10.08
2019-06-26T03:03:42.212Z,9.88
2019-06-26T03:06:12.861Z,8.93
2019-06-26T03:08:43.261Z,8.38
2019-06-26T03:11:13.656Z,9.53
2019-06-26T03:13:44.053Z,8.20
2019-06-26T03:16:14.458Z,8.60
2019-06-26T03:18:44.842Z,10.08
2019-06-26T03:21:15.266Z,7.62
2019-06-26T03:23:45.665Z,7.70
2019-06-26T03:26:16.249Z,8.80
2019-06-26T03:28:46.645Z,8.53
2019-06-26T03:31:17.041Z,7.28
2019-06-26T03:33:47.774Z,7.30
2019-06-26T03:36:18.512Z,7.67
2019-06-26T03:38:48.867Z,7.40
2019-06-26T03:41:19.264Z,8.38
2019-06-26T03:43:49.665Z,8.05
2019-06-26T03:46:20.070Z,8.50
2019-06-26T03:48:50.473Z,8.18
2019-06-26T03:51:20.902Z,8.68
2019-06-26T03:53:51.273Z,9.10
2019-06-26T03:56:21.773Z,8.10
2019-06-26T03:58:52.455Z,9.08
2019-06-26T04:01:23.198Z,9.40
2019-06-26T04:03:57.280Z,9.95
2019-06-26T04:06:26.345Z,11.03
2019-06-26T04:08:56.753Z,10.18
2019-06-26T04:11:27.314Z,9.88
2019-06-26T04:13:57.734Z,10.43
2019-06-26T04:16:28.135Z,9.65
2019-06-26T04:18:58.530Z,9.88
2019-06-26T04:21:28.938Z,10.28
2019-06-26T04:23:59.337Z,9.38
2019-06-26T04:26:29.784Z,10.85
2019-06-26T04:29:00.520Z,10.85
2019-06-26T04:31:30.917Z,8.85
2019-06-26T04:34:01.399Z,10.90
2019-06-26T04:36:32.273Z,10.20
2019-06-26T04:39:02.677Z,10.65
2019-06-26T04:41:33.778Z,9.45
2019-06-26T04:44:04.267Z,9.40
2019-06-26T04:46:35.620Z,10.55
2019-06-26T04:49:06.021Z,9.85
2019-06-26T04:51:36.429Z,9.28
2019-06-26T04:54:06.826Z,9.38
2019-06-26T04:56:37.226Z,10.35
2019-06-26T04:59:07.635Z,10.10
2019-06-26T05:01:38.281Z,11.60
2019-06-26T05:04:08.686Z,11.33
2019-06-26T05:06:39.444Z,11.65
2019-06-26T05:09:09.851Z,11.05
2019-06-26T05:11:40.246Z,11.48
2019-06-26T05:14:10.657Z,10.78
2019-06-26T05:16:41.061Z,10.45
2019-06-26T05:19:11.464Z,11.03
2019-06-26T05:21:41.864Z,10.10
2019-06-26T05:24:12.258Z,10.38
2019-06-26T05:26:42.661Z,9.45
2019-06-26T05:29:13.067Z,10.03
2019-06-26T05:31:43.474Z,8.93
2019-06-26T05:34:13.885Z,9.03
2019-06-26T05:36:45.245Z,8.38
2019-06-26T05:39:15.636Z,8.65
2019-06-26T05:41:46.973Z,8.70
2019-06-26T05:44:17.745Z,9.40
2019-06-26T05:46:49.052Z,8.63
2019-06-26T05:49:19.545Z,8.63
2019-06-26T05:51:50.628Z,9.68
2019-06-26T05:54:21.776Z,9.50
2019-06-26T05:56:53.868Z,8.95
2019-06-26T05:59:25.186Z,10.13
2019-06-26T06:01:55.877Z,8.73
2019-06-26T06:04:27.075Z,9.08
2019-06-26T06:06:59.036Z,8.23
2019-06-26T06:09:29.459Z,9.60
2019-06-26T06:12:00.678Z,8.80
2019-06-26T06:14:31.915Z,8.50
2019-06-26T06:17:03.174Z,7.40
2019-06-26T06:19:33.919Z,8.68
2019-06-26T06:22:04.889Z,7.80
2019-06-26T06:24:36.282Z,9.10
2019-06-26T06:27:06.876Z,10.32
2019-06-26T06:29:38.188Z,10.13
2019-06-26T06:32:09.296Z,8.98
2019-06-26T06:34:39.691Z,10.53
2019-06-26T06:37:10.905Z,11.73
2019-06-26T06:39:41.311Z,10.15
2019-06-26T06:42:11.715Z,8.33
2019-06-26T06:44:42.108Z,8.05
2019-06-26T06:47:12.507Z,8.85
2019-06-26T06:49:42.955Z,8.15
2019-06-26T06:52:16.502Z,8.90
2019-06-26T06:54:45.733Z,9.93
2019-06-26T06:57:16.130Z,8.63
2019-06-26T06:59:47.783Z,9.63
2019-06-26T07:02:18.181Z,8.88
2019-06-26T07:04:48.652Z,9.23
2019-06-26T07:07:19.262Z,10.28
2019-06-26T07:09:49.639Z,9.10
2019-06-26T07:12:21.012Z,9.63
2019-06-26T07:14:51.519Z,8.68
2019-06-26T07:17:21.898Z,9.55
2019-06-26T07:19:52.304Z,10.28
2019-06-26T07:22:22.728Z,9.53
2019-06-26T07:24:53.204Z,10.00
2019-06-26T07:27:23.618Z,9.80
2019-06-26T07:29:54.006Z,9.43
2019-06-26T07:32:24.434Z,10.05
2019-06-26T07:34:55.799Z,10.78
2019-06-26T07:37:26.830Z,11.22
2019-06-26T07:40:01.438Z,11.03
2019-06-26T07:42:29.407Z,9.18
2019-06-26T07:44:59.797Z,10.70
2019-06-26T07:47:42.608Z,10.15
2019-06-26T07:50:02.436Z,9.50
2019-06-26T07:52:32.848Z,9.70
2019-06-26T07:55:03.609Z,9.78
2019-06-26T07:57:34.012Z,9.13
2019-06-26T08:00:06.028Z,10.28
2019-06-26T08:02:36.429Z,8.93
2019-06-26T08:05:08.926Z,9.73
2019-06-26T08:07:39.703Z,9.53
2019-06-26T08:10:10.409Z,8.93
2019-06-26T08:12:40.813Z,8.60
2019-06-26T08:15:11.829Z,9.93
2019-06-26T08:17:59.319Z,9.40
2019-06-26T08:20:16.182Z,9.45
2019-06-26T08:22:46.606Z,9.20
2019-06-26T08:25:18.048Z,9.63
2019-06-26T08:27:49.097Z,9.48
2019-06-26T08:30:20.891Z,9.48
2019-06-26T08:32:51.288Z,8.33
2019-06-26T08:35:21.693Z,9.70
2019-06-26T08:38:08.982Z,9.85
2019-06-26T08:40:24.717Z,9.30
2019-06-26T08:42:55.292Z,9.98
2019-06-26T08:45:25.758Z,10.03
2019-06-26T08:47:56.431Z,10.08
2019-06-26T08:50:26.827Z,9.48
2019-06-26T08:52:57.276Z,10.70
2019-06-26T08:55:27.702Z,10.03
2019-06-26T08:58:10.505Z,10.50
2019-06-26T09:00:40.898Z,10.80
2019-06-26T09:03:11.309Z,9.95
2019-06-26T09:05:48.015Z,9.88
2019-06-26T09:08:14.368Z,10.75
2019-06-26T09:10:45.329Z,9.90
2019-06-26T09:13:15.851Z,9.88
2019-06-26T09:15:49.694Z,11.00
2019-06-26T09:18:34.303Z,10.10
2019-06-26T09:20:50.465Z,9.78
2019-06-26T09:23:20.858Z,9.75
2019-06-26T09:25:51.258Z,9.55
2019-06-26T09:28:21.659Z,9.65
2019-06-26T09:30:52.107Z,9.75
2019-06-26T09:33:22.464Z,9.10
2019-06-26T09:35:52.937Z,9.35
2019-06-26T09:38:24.179Z,8.55
2019-06-26T09:40:54.840Z,8.80
2019-06-26T09:43:25.244Z,8.65
2019-06-26T09:45:55.640Z,9.03
2019-06-26T09:48:26.041Z,8.95
2019-06-26T09:50:56.432Z,8.83
2019-06-26T09:53:27.180Z,9.30
2019-06-26T09:55:57.590Z,7.83
2019-06-26T09:58:27.992Z,8.68
2019-06-26T10:00:58.377Z,7.95
2019-06-26T10:03:29.107Z,8.18
2019-06-26T10:05:59.497Z,8.80
2019-06-26T10:08:30.709Z,8.78
2019-06-26T10:11:01.165Z,8.60
2019-06-26T10:13:32.654Z,7.90
2019-06-26T10:16:03.050Z,7.80
2019-06-26T10:18:33.455Z,8.03
2019-06-26T10:21:04.929Z,8.80
2019-06-26T10:23:35.316Z,7.87
2019-06-26T10:26:05.718Z,8.13
2019-06-26T10:28:36.126Z,7.20
2019-06-26T10:31:06.787Z,7.65
2019-06-26T10:33:37.171Z,8.88
2019-06-26T10:36:07.569Z,7.70
2019-06-26T10:38:38.496Z,7.58
2019-06-26T10:41:08.903Z,8.10
2019-06-26T10:43:39.304Z,8.03
2019-06-26T10:46:09.708Z,6.95
2019-06-26T10:48:40.101Z,8.78
2019-06-26T10:51:10.509Z,7.80
2019-06-26T10:53:40.906Z,6.80
2019-06-26T10:56:11.305Z,7.87
2019-06-26T10:58:41.700Z,8.08
2019-06-26T11:01:12.097Z,7.95
2019-06-26T11:03:43.568Z,8.63
2019-06-26T11:06:13.968Z,8.33
2019-06-26T11:08:44.845Z,7.95
2019-06-26T11:11:15.251Z,8.70
2019-06-26T11:13:45.636Z,7.87
2019-06-26T11:16:16.288Z,8.28
2019-06-26T11:18:46.667Z,8.45
2019-06-26T11:21:17.071Z,7.80
2019-06-26T11:23:47.464Z,7.70
2019-06-26T11:26:17.862Z,7.83
2019-06-26T11:28:48.259Z,8.50
2019-06-26T11:31:18.647Z,8.38
2019-06-26T11:33:49.057Z,7.45
2019-06-26T11:36:19.446Z,8.73
2019-06-26T11:38:49.851Z,8.85
2019-06-26T11:41:20.251Z,8.90
2019-06-26T11:43:50.650Z,8.18
2019-06-26T11:46:21.054Z,8.50
2019-06-26T11:48:51.445Z,8.78
2019-06-26T11:51:22.822Z,8.15
2019-06-26T11:53:53.210Z,8.50
2019-06-26T11:56:23.738Z,8.50
2019-06-26T11:58:54.157Z,6.80
2019-06-26T12:01:24.643Z,7.17
2019-06-26T12:03:55.070Z,8.08
2019-06-26T12:06:25.448Z,7.80
2019-06-26T12:08:56.341Z,7.67
2019-06-26T12:11:26.741Z,7.25
2019-06-26T12:13:57.130Z,7.67
2019-06-26T12:16:27.522Z,7.33
2019-06-26T12:18:57.928Z,7.03
2019-06-26T12:21:28.326Z,8.08
2019-06-26T12:23:58.722Z,7.40
2019-06-26T12:26:29.122Z,7.20
2019-06-26T12:28:59.528Z,7.17
2019-06-26T12:31:30.286Z,7.78
2019-06-26T12:34:00.668Z,7.17
2019-06-26T12:36:31.058Z,7.80
2019-06-26T12:39:01.750Z,7.30
2019-06-26T12:41:33.741Z,8.18
2019-06-26T12:44:04.455Z,7.70
2019-06-26T12:46:34.932Z,7.47
2019-06-26T12:49:05.390Z,7.83
2019-06-26T12:51:35.784Z,7.30
2019-06-26T12:54:06.197Z,8.18
2019-06-26T12:56:36.613Z,7.75
2019-06-26T12:59:07.026Z,7.60
2019-06-26T13:01:37.421Z,8.15
2019-06-26T13:04:07.814Z,7.50
2019-06-26T13:06:38.236Z,7.90
2019-06-26T13:09:09.711Z,6.58
2019-06-26T13:11:40.090Z,7.28
2019-06-26T13:14:11.043Z,6.83
2019-06-26T13:16:41.803Z,7.37
2019-06-26T13:19:12.175Z,6.67
2019-06-26T13:21:42.648Z,6.90
2019-06-26T13:24:13.047Z,6.70
2019-06-26T13:26:43.413Z,6.53
2019-06-26T13:29:13.812Z,7.05
2019-06-26T13:31:44.542Z,6.15
2019-06-26T13:34:14.925Z,7.90
2019-06-26T13:36:45.318Z,6.37
2019-06-26T13:39:16.545Z,6.17
2019-06-26T13:41:47.277Z,6.75
2019-06-26T13:44:17.678Z,7.10
2019-06-26T13:46:48.151Z,6.53
2019-06-26T13:49:18.552Z,7.40
2019-06-26T13:51:48.953Z,7.65
2019-06-26T13:54:19.449Z,7.33
2019-06-26T13:56:49.793Z,6.92
2019-06-26T13:59:20.185Z,7.70
2019-06-26T14:01:50.590Z,6.47
2019-06-26T14:04:20.983Z,6.97
2019-06-26T14:06:51.407Z,7.25
2019-06-26T14:09:23.208Z,7.35
2019-06-26T14:11:53.602Z,6.83
2019-06-26T14:14:40.804Z,6.87
2019-06-26T14:16:56.101Z,6.47
2019-06-26T14:19:26.964Z,6.47
2019-06-26T14:21:57.361Z,6.15
2019-06-26T14:24:27.752Z,6.67
2019-06-26T14:26:58.143Z,7.28
2019-06-26T14:29:28.580Z,6.85
2019-06-26T14:31:59.949Z,6.70
2019-06-26T14:34:30.915Z,7.03
2019-06-26T14:37:01.317Z,6.95
2019-06-26T14:39:32.554Z,6.53
2019-06-26T14:42:03.645Z,6.37
2019-06-26T14:44:34.004Z,7.05
2019-06-26T14:47:04.871Z,6.97
2019-06-26T14:49:35.219Z,6.60
2019-06-26T14:52:05.807Z,7.58
2019-06-26T14:54:36.209Z,7.45
2019-06-26T14:57:06.589Z,7.08
2019-06-26T14:59:36.984Z,7.20
2019-06-26T15:02:08.646Z,6.47
2019-06-26T15:04:39.061Z,6.97
2019-06-26T15:07:09.486Z,6.95
2019-06-26T15:09:41.483Z,6.08
2019-06-26T15:12:11.868Z,7.05
2019-06-26T15:14:42.269Z,6.08
2019-06-26T15:17:12.677Z,6.40
2019-06-26T15:19:43.075Z,6.92
2019-06-26T15:22:13.483Z,6.60
2019-06-26T15:24:43.884Z,6.25
2019-06-26T15:27:14.274Z,6.83
2019-06-26T15:29:44.749Z,7.00
2019-06-26T15:32:15.232Z,6.62
2019-06-26T15:34:46.790Z,6.47
2019-06-26T15:37:17.194Z,6.17
2019-06-26T15:39:48.839Z,9.65
2019-06-26T15:42:22.475Z,8.20
2019-06-26T15:47:22.886Z,7.03
2019-06-26T15:49:53.616Z,6.78
2019-06-26T15:52:24.023Z,7.20
2019-06-26T15:54:54.467Z,5.90
2019-06-26T15:57:25.882Z,5.55
2019-06-26T15:59:56.549Z,7.15
2019-06-26T16:02:28.501Z,6.50
2019-06-26T16:05:01.188Z,5.37
2019-06-26T16:07:34.579Z,5.83
2019-06-26T16:10:09.872Z,10.90
2019-06-26T16:12:40.313Z,8.58
2019-06-26T16:15:11.306Z,5.95
2019-06-26T16:17:46.107Z,6.10
2019-06-26T16:20:18.214Z,9.53
2019-06-26T16:22:49.593Z,11.38
2019-06-26T16:25:24.364Z,6.60
2019-06-26T16:28:05.229Z,6.75
2019-06-26T16:30:26.868Z,5.62
2019-06-26T16:33:01.490Z,6.20
2019-06-26T16:38:00.930Z,6.37
2019-06-26T16:40:34.113Z,6.22
2019-06-26T16:43:21.992Z,6.87
2019-06-26T16:46:28.049Z,7.25
2019-06-26T16:49:08.410Z,7.40
2019-06-26T16:52:03.260Z,5.95
2019-06-26T16:54:56.882Z,6.95
2019-06-26T16:57:44.210Z,6.17
2019-06-26T17:00:23.217Z,7.22
2019-06-26T17:03:22.971Z,6.87
2019-06-26T17:06:49.290Z,7.12
2019-06-26T17:12:30.799Z,6.75
2019-06-26T17:15:12.920Z,6.78
2019-06-26T17:18:24.369Z,11.28
2019-06-26T17:21:15.020Z,8.10
2019-06-26T17:23:53.713Z,8.70
2019-06-26T17:26:42.675Z,6.55
2019-06-26T17:29:28.967Z,7.17
2019-06-26T17:32:42.309Z,6.00
2019-06-26T17:35:50.235Z,7.12
2019-06-26T17:39:17.271Z,9.88
2019-06-26T17:41:20.269Z,12.05
2019-06-26T17:47:11.426Z,6.67
2019-06-26T17:49:44.650Z,7.42
2019-06-26T17:52:15.051Z,8.80
2019-06-26T17:54:45.455Z,7.80
2019-06-26T17:57:16.343Z,13.50
2019-06-26T17:59:46.743Z,15.50
2019-06-26T18:02:18.914Z,8.05
2019-06-26T18:04:49.678Z,7.53
2019-06-26T18:07:20.069Z,7.25
2019-06-26T18:09:50.474Z,7.15
2019-06-26T18:12:21.370Z,8.28
2019-06-26T18:14:51.896Z,7.87
2019-06-26T18:17:23.326Z,8.63
2019-06-26T18:19:58.315Z,8.98
2019-06-26T18:22:28.658Z,8.18
2019-06-26T18:24:59.101Z,6.53
2019-06-26T18:27:31.116Z,7.45
2019-06-26T18:30:02.287Z,6.72
2019-06-26T18:32:33.116Z,6.92
2019-06-26T18:35:04.874Z,7.22
2019-06-26T18:37:35.247Z,6.00
2019-06-26T18:40:07.366Z,8.60
2019-06-26T18:42:37.920Z,8.20
2019-06-26T18:45:08.775Z,14.45
2019-06-26T18:47:45.166Z,12.70
2019-06-26T18:50:18.663Z,9.63
2019-06-26T18:52:49.333Z,7.92
2019-06-26T18:55:22.296Z,7.58
2019-06-26T18:57:51.910Z,6.87
2019-06-26T19:00:23.972Z,6.50
2019-06-26T19:02:54.470Z,7.20
2019-06-26T19:05:24.858Z,7.15
2019-06-26T19:07:55.253Z,6.83
2019-06-26T19:10:25.681Z,6.70
2019-06-26T19:12:56.488Z,7.00
2019-06-26T19:15:26.985Z,6.28
2019-06-26T19:17:57.390Z,6.92
2019-06-26T19:20:27.868Z,6.95
2019-06-26T19:22:58.274Z,7.03
2019-06-26T19:25:29.084Z,7.20
2019-06-26T19:27:59.942Z,6.40
2019-06-26T19:30:30.340Z,6.28
2019-06-26T19:33:00.756Z,7.20
2019-06-26T19:35:32.145Z,6.50
2019-06-26T19:38:02.541Z,6.53
2019-06-26T19:40:32.936Z,6.58
2019-06-26T19:43:03.592Z,6.87
2019-06-26T19:45:33.998Z,6.83
2019-06-26T19:48:04.401Z,7.58
2019-06-26T19:50:34.814Z,7.25
2019-06-26T19:53:05.612Z,7.87
2019-06-26T19:55:36.087Z,6.25
2019-06-26T19:58:06.497Z,7.60
2019-06-26T20:00:36.894Z,7.22
2019-06-26T20:03:07.628Z,8.55
2019-06-26T20:05:38.032Z,7.97
2019-06-26T20:08:08.472Z,7.92
2019-06-26T20:10:38.986Z,8.43
2019-06-26T20:13:09.588Z,8.10
2019-06-26T20:15:40.072Z,7.25
2019-06-26T20:18:10.474Z,8.20
2019-06-26T20:20:40.873Z,7.12
2019-06-26T20:23:11.283Z,8.60
2019-06-26T20:25:41.686Z,7.92
2019-06-26T20:28:12.759Z,8.20
2019-06-26T20:30:43.155Z,7.72
2019-06-26T20:33:13.564Z,7.58
2019-06-26T20:35:43.958Z,8.65
2019-06-26T20:38:14.616Z,8.63
2019-06-26T20:40:46.135Z,8.80
2019-06-26T20:43:16.866Z,9.33
2019-06-26T20:45:47.366Z,9.93
2019-06-26T20:48:18.840Z,10.20
2019-06-26T20:50:49.254Z,9.70
2019-06-26T20:53:19.647Z,8.85
2019-06-26T20:55:50.057Z,9.75
2019-06-26T20:58:20.442Z,9.25
2019-06-26T21:00:50.911Z,9.43
2019-06-26T21:03:21.478Z,8.25
2019-06-26T21:05:51.900Z,8.80
2019-06-26T21:08:22.570Z,8.55
2019-06-26T21:10:52.976Z,7.90
2019-06-26T21:13:23.771Z,8.53
2019-06-26T21:15:54.251Z,8.33
2019-06-26T21:18:24.671Z,8.45
2019-06-26T21:20:55.415Z,8.30
2019-06-26T21:23:25.818Z,8.03
2019-06-26T21:25:56.489Z,8.20
2019-06-26T21:28:27.452Z,9.00
2019-06-26T21:30:57.850Z,8.83
2019-06-26T21:33:28.256Z,8.35
2019-06-26T21:35:58.659Z,7.97
2019-06-26T21:38:29.057Z,8.68
2019-06-26T21:40:59.461Z,8.90
2019-06-26T21:43:29.867Z,10.72
2019-06-26T21:46:00.278Z,9.53
2019-06-26T21:48:30.693Z,11.15
2019-06-26T21:51:01.098Z,9.70
2019-06-26T21:53:31.523Z,9.85
2019-06-26T21:56:19.902Z,9.78
2019-06-26T21:59:08.389Z,8.50
2019-06-26T22:01:56.836Z,8.20
2019-06-26T22:04:44.960Z,9.48
2019-06-26T22:07:29.559Z,8.85
2019-06-26T22:10:01.553Z,9.20
2019-06-26T22:12:33.681Z,9.25
2019-06-26T22:15:05.386Z,11.22
2019-06-26T22:17:36.818Z,12.45
2019-06-26T22:20:12.525Z,10.90
2019-06-26T22:22:41.406Z,9.00
2019-06-26T22:25:11.942Z,8.80
2019-06-26T22:27:42.334Z,9.48
2019-06-26T22:30:13.990Z,8.20
2019-06-26T22:32:44.433Z,8.93
2019-06-26T22:35:15.669Z,8.65
2019-06-26T22:37:46.086Z,9.20
2019-06-26T22:40:16.617Z,8.93
2019-06-26T22:42:47.163Z,10.35
2019-06-26T22:45:17.943Z,9.93
2019-06-26T22:47:48.344Z,9.70
2019-06-26T22:50:19.730Z,9.23
2019-06-26T22:52:50.121Z,8.60
2019-06-26T22:55:20.539Z,9.40
2019-06-26T22:57:50.937Z,9.78
2019-06-26T23:00:21.607Z,9.53
2019-06-26T23:02:52.371Z,9.60
2019-06-26T23:05:22.771Z,9.45
2019-06-26T23:07:53.188Z,9.40
2019-06-26T23:10:23.588Z,9.53
2019-06-26T23:12:53.992Z,9.23
2019-06-26T23:15:24.949Z,9.88
2019-06-26T23:17:55.984Z,9.25
2019-06-26T23:20:26.383Z,9.53
2019-06-26T23:22:56.797Z,9.40
2019-06-26T23:25:27.199Z,9.15
2019-06-26T23:27:57.602Z,10.10
2019-06-26T23:30:28.494Z,9.55
2019-06-26T23:32:58.894Z,8.93
2019-06-26T23:35:29.367Z,9.30
2019-06-26T23:37:59.775Z,9.60
2019-06-26T23:40:30.181Z,10.05
2019-06-26T23:43:00.587Z,9.58
2019-06-26T23:45:32.059Z,9.35
2019-06-26T23:48:02.742Z,9.88
2019-06-26T23:50:33.166Z,9.70
2019-06-26T23:53:03.887Z,9.10
2019-06-26T23:55:34.299Z,9.78
2019-06-26T23:58:04.693Z,9.85
